Spangler Peak (973) Station Data

Red Flag Warning: No
Fire Weather Zone: 250
SDGE Region: Ramona
Lat/Lon: 32.997/-116.789

Observations

Time Wind Speed/Gust Temp(F) RH Fuel Moist Fuel Temp(F) Dewpt(F) Tmax(F) Tmin(F) Accum Precip 10-min Precip SL Press(mb)
6/22 5:00am 75 1 G 2 66° 70% - - 56° 73.4° 63.4° - - 884.0
6/22 4:50am 79 1 G 3 66° 68% - - 55° 73.4° 63.4° - - 884.0
6/22 4:40am 131 4 G 6 68° 63% - - 55° 73.4° 63.4° - - 882.0
6/22 4:30am 125 4 G 6 67° 69% - - 56° 73.4° 63.4° - - 885.0
6/22 4:20am 100 2 G 3 64° 74% - - 56° 73.4° 63.4° - - 886.0
6/22 4:10am 57 1 G 2 64° 75% - - 56° 73.4° 63.4° - - 886.0
6/22 4:00am 76 0 G 1 64° 77% - - 56° 73.4° 63.4° - - 887.0
6/22 3:50am 64 2 G 2 64° 78% - - 57° 73.4° 63.4° - - 887.0
6/22 3:40am 71 2 G 2 64° 77% - - 57° 73.4° 63.9° - - 887.0
6/22 3:30am 133 1 G 2 64° 76% - - 57° 73.4° 64° - - 887.0
6/22 3:20am 241 0 G 2 65° 75% - - 56° 73.4° 64.3° - - 887.0
6/22 3:10am 283 0 G 1 66° 71% - - 56° 73.4° 64.8° - - 885.0
6/22 3:00am 66 1 G 4 68° 69% - - 57° 73.4° 67° - - 885.0
6/22 2:50am 107 2 G 4 68° 69% - - 57° 73.4° 67.3° - - 885.0
6/22 2:40am 82 2 G 3 68° 68% - - 57° 73.4° 67.3° - - 885.0
6/22 2:30am 123 2 G 4 68° 70% - - 58° 73.4° 67.3° - - 885.0
6/22 2:20am 67 1 G 4 68° 70% - - 58° 73.4° 67.3° - - 885.0
6/22 2:10am 114 3 G 6 68° 69% - - 58° 73.4° 67.3° - - 885.0
6/22 2:00am 150 5 G 7 68° 69% - - 58° 73.4° 68° - - 885.0
6/22 1:50am 146 4 G 7 69° 67% - - 58° 73.4° 68.1° - - 884.0
6/22 1:40am 143 7 G 7 71° 64% - - 58° 73.4° 69.9° - - 883.0
6/22 1:30am 136 5 G 7 72° 59% - - 57° 73.4° 70.9° - - 882.0
6/22 1:20am 139 4 G 5 72° 58% - - 57° 73.4° 70.9° - - 881.0
6/22 1:10am 111 2 G 3 73° 55% - - 56° 73.4° 70.9° - - 881.0
6/22 1:00am 108 2 G 3 73° 58% - - 57° 73.1° 70.9° - - 882.0
6/22 12:50am 93 3 G 3 73° 58% - - 57° 73.1° 70.9° - - 882.0
6/22 12:40am 140 3 G 4 73° 57% - - 56° 73.1° 70.9° - - 881.0
6/22 12:30am 160 3 G 4 73° 58% - - 57° 73.1° 70.9° - - 882.0
6/22 12:20am 158 5 G 6 72° 62% - - 58° 72.8° 70.9° - - 883.0
6/22 12:10am 158 5 G 6 72° 61% - - 58° 72.6° 71.2° - - 883.0
6/22 12:00am 145 4 G 5 73° 60% - - 58° 98.6° 71.9° - - 882.0
6/21 11:50pm 123 3 G 5 73° 58% - - 58° 98.6° 71.9° - - 882.0
6/21 11:40pm 129 2 G 3 73° 59% - - 58° 98.6° 71.9° - - 882.0
6/21 11:30pm 118 2 G 2 72° 61% - - 58° 98.6° 71.9° - - 883.0
6/21 11:20pm 89 2 G 2 72° 60% - - 58° 98.6° 71.9° - - 883.0
6/21 11:10pm 90 1 G 2 73° 60% - - 58° 98.6° 72.3° - - 883.0
6/21 11:00pm 72 1 G 2 73° 59% - - 58° 98.6° 72.6° - - 882.0
6/21 10:50pm 76 0 G 2 73° 58% - - 58° 98.6° 73° - - 882.0
6/21 10:40pm 53 0 G 1 74° 56% - - 57° 98.6° 73.4° - - 882.0
6/21 10:30pm 53 0 G 1 75° 55% - - 57° 98.6° 74.1° - - 881.0
6/21 10:20pm 59 0 G 1 75° 54% - - 57° 98.6° 74.9° - - 881.0
6/21 10:10pm 76 1 G 1 76° 53% - - 58° 98.6° 75.3° - - 881.0
6/21 10:00pm 0 0 G 0 76° 54% - - 58° 98.6° 75.3° - - 881.0
6/21 9:50pm 211 0 G 1 76° 53% - - 57° 98.6° 75.4° - - 881.0
6/21 9:40pm 269 1 G 2 76° 52% - - 57° 98.6° 76° - - 881.0
6/21 9:30pm 259 2 G 3 77° 51% - - 57° 98.6° 76.4° - - 881.0
6/21 9:20pm 271 2 G 3 77° 50% - - 57° 98.6° 76.5° - - 880.0
6/21 9:10pm 256 1 G 3 78° 49% - - 57° 98.6° 76.5° - - 880.0
6/21 9:00pm 244 1 G 3 78° 49% - - 57° 98.6° 76.5° - - 880.0
6/21 8:50pm 255 3 G 4 78° 49% - - 57° 98.6° 76.5° - - 880.0
6/21 8:40pm 252 2 G 4 79° 48% - - 57° 98.6° 76.5° - - 880.0
6/21 8:30pm 272 2 G 3 79° 47% - - 57° 98.6° 76.5° - - 880.0
6/21 8:20pm 269 2 G 3 80° 46% - - 57° 98.6° 76.5° - - 880.0
6/21 8:10pm 283 2 G 3 81° 45% - - 57° 98.6° 76.5° - - 880.0
6/21 8:00pm 283 3 G 4 81° 43% - - 57° 98.6° 76.5° - - 880.0
6/21 7:50pm 267 3 G 5 83° 42% - - 57° 98.6° 76.5° - - 880.0
6/21 7:40pm 271 3 G 5 83° 40% - - 57° 98.6° 76.5° - - 880.0
6/21 7:30pm 284 4 G 6 85° 38% - - 56° 98.6° 76.5° - - 879.0
6/21 7:20pm 275 5 G 7 86° 36% - - 56° 98.6° 76.5° - - 879.0
6/21 7:10pm 278 6 G 8 86° 35% - - 55° 98.6° 76.5° - - 879.0
6/21 7:00pm 283 6 G 8 87° 33% - - 55° 98.6° 76.5° - - 879.0
6/21 6:50pm 282 6 G 9 88° 33% - - 55° 98.6° 76.5° - - 879.0
6/21 6:40pm 274 7 G 10 88° 32% - - 55° 98.6° 76.5° - - 879.0
6/21 6:30pm 276 6 G 9 89° 31% - - 55° 98.6° 76.5° - - 879.0
6/21 6:20pm 273 7 G 10 89° 31% - - 55° 98.6° 76.5° - - 879.0
6/21 6:10pm 273 7 G 10 90° 30% - - 54° 98.6° 76.5° - - 879.0
6/21 6:00pm 258 8 G 11 90° 29% - - 54° 98.6° 76.5° - - 879.0
6/21 5:50pm 258 8 G 13 91° 28% - - 53° 98.6° 76.5° - - 878.0
6/21 5:40pm 246 8 G 13 91° 27% - - 53° 98.6° 76.5° - - 878.0
6/21 5:30pm 247 9 G 13 91° 27% - - 53° 98.6° 76.5° - - 878.0
6/21 5:20pm 250 9 G 14 91° 27% - - 52° 98.6° 76.5° - - 879.0
6/21 5:10pm 255 9 G 14 92° 27% - - 53° 98.6° 76.5° - - 879.0
6/21 5:00pm 248 9 G 15 91° 27% - - 53° 98.6° 76.5° - - 879.0
6/21 4:50pm 246 9 G 14 92° 27% - - 53° 98.6° 76.5° - - 879.0
6/21 4:40pm 259 9 G 14 92° 26% - - 53° 98.6° 76.5° - - 879.0
6/21 4:30pm 249 9 G 14 92° 26% - - 52° 98.6° 76.5° - - 879.0
6/21 4:20pm 251 9 G 15 93° 25% - - 52° 98.6° 76.5° - - 879.0
6/21 4:10pm 249 10 G 14 93° 25% - - 52° 98.6° 76.5° - - 879.0
6/21 4:00pm 260 10 G 15 93° 24% - - 52° 98.6° 76.5° - - 879.0
6/21 3:50pm 249 10 G 15 94° 24% - - 51° 98.6° 76.5° - - 879.0
6/21 3:40pm 248 8 G 14 94° 24% - - 51° 98.6° 76.5° - - 879.0
6/21 3:30pm 255 10 G 17 94° 23% - - 51° 98.6° 76.5° - - 879.0
6/21 3:20pm 253 9 G 16 95° 23% - - 51° 98.6° 76.5° - - 879.0
6/21 3:10pm 242 9 G 15 95° 23% - - 51° 98.6° 76.5° - - 880.0
6/21 3:00pm 248 10 G 15 95° 23% - - 51° 98.6° 76.5° - - 880.0
6/21 2:50pm 246 9 G 14 95° 23% - - 52° 98.6° 76.5° - - 880.0
6/21 2:40pm 248 10 G 15 95° 23% - - 52° 98.6° 76.5° - - 880.0
6/21 2:30pm 252 10 G 16 96° 23% - - 52° 98.6° 76.5° - - 880.0
6/21 2:20pm 253 10 G 14 96° 23% - - 52° 98.6° 76.5° - - 880.0
6/21 2:10pm 249 11 G 16 96° 21% - - 50° 98.6° 76.5° - - 879.0
6/21 2:00pm 246 10 G 17 97° 20% - - 49° 98.6° 76.5° - - 879.0
6/21 1:50pm 248 11 G 17 96° 20% - - 49° 98.6° 76.5° - - 879.0
6/21 1:40pm 256 10 G 14 97° 20% - - 49° 98.6° 76.5° - - 879.0
6/21 1:30pm 253 11 G 15 97° 21% - - 50° 98.6° 76.5° - - 879.0
6/21 1:20pm 250 10 G 15 96° 21% - - 50° 98.6° 76.5° - - 879.0
6/21 1:10pm 250 10 G 15 96° 21% - - 50° 98.6° 76.5° - - 879.0
6/21 1:00pm 249 10 G 15 96° 20% - - 49° 98.6° 76.5° - - 879.0
6/21 12:50pm 259 9 G 14 97° 20% - - 49° 98.6° 76.5° - - 879.0
6/21 12:40pm 249 9 G 13 96° 19% - - 48° 98.6° 76.5° - - 879.0
6/21 12:30pm 252 9 G 14 97° 19% - - 47° 98.6° 76.5° - - 879.0
6/21 12:20pm 259 9 G 14 97° 18% - - 47° 98.6° 76.5° - - 879.0
6/21 12:10pm 269 8 G 13 98° 15% - - 42° 98.6° 76.5° - - 878.0
6/21 12:00pm 265 7 G 11 97° 14% - - 39° 98.2° 76.5° - - 878.0
6/21 11:50am 281 7 G 12 98° 13% - - 39° 98.2° 76.5° - - 878.0
6/21 11:40am 290 6 G 10 97° 13% - - 38° 98.2° 76.5° - - 877.0
6/21 11:30am 276 6 G 10 97° 14% - - 40° 98.1° 76.5° - - 877.0
6/21 11:20am 281 6 G 9 96° 14% - - 40° 96.7° 76.5° - - 877.0
6/21 11:10am 273 6 G 11 96° 15% - - 41° 96.7° 76.5° - - 877.0
6/21 11:00am 286 6 G 10 95° 18% - - 45° 95.6° 76.5° - - 878.0
6/21 10:50am 278 6 G 9 94° 20% - - 47° 95° 76.5° - - 878.0
6/21 10:40am 304 5 G 7 93° 22% - - 48° 93.6° 76.5° - - 878.0
6/21 10:30am 304 4 G 7 92° 22% - - 48° 92.9° 76.5° - - 877.0
6/21 10:20am 297 4 G 6 92° 22% - - 48° 92.9° 76.5° - - 877.0
6/21 10:10am 308 4 G 6 92° 22% - - 48° 92.3° 76.5° - - 877.0
6/21 10:00am 303 4 G 7 91° 23% - - 48° 91.2° 76.5° - - 877.0
6/21 9:50am 272 4 G 6 90° 24% - - 48° 90.5° 76.5° - - 876.0
6/21 9:40am 271 3 G 6 90° 24% - - 48° 89.8° 76.5° - - 876.0
6/21 9:30am 288 3 G 6 89° 25% - - 48° 89.1° 76.5° - - 876.0
6/21 9:20am 273 3 G 5 88° 24% - - 47° 88.4° 76.5° - - 875.0
6/21 9:10am 274 3 G 5 88° 22% - - 44° 88.3° 76.5° - - 874.0
6/21 9:00am 296 3 G 4 87° 24% - - 46° 87.2° 76.5° - - 875.0
6/21 8:50am 301 2 G 4 86° 26% - - 47° 86.4° 76.5° - - 875.0
6/21 8:40am 311 2 G 3 85° 26% - - 47° 86° 76.5° - - 874.0
6/21 8:30am 327 2 G 4 84° 27% - - 46° 86° 76.5° - - 874.0
6/21 8:20am 315 2 G 4 84° 28% - - 47° 86° 76.5° - - 874.0
6/21 8:10am 353 2 G 3 86° 26% - - 47° 86° 76.5° - - 874.0
6/21 8:00am 48 2 G 3 85° 24% - - 44° 85.6° 76.5° - - 872.0
6/21 7:50am 64 2 G 3 84° 24% - - 44° 84.6° 76.5° - - 872.0
6/21 7:40am 52 2 G 2 82° 26% - - 44° 83.3° 76.5° - - 872.0
6/21 7:30am 78 2 G 3 82° 25% - - 43° 82.5° 76.5° - - 871.0
6/21 7:20am 79 1 G 2 82° 25% - - 42° 82.5° 76.5° - - 871.0
6/21 7:10am 137 2 G 4 81° 24% - - 41° 81.4° 76.5° - - 871.0
6/21 7:00am 141 4 G 5 80° 23% - - 39° 80.8° 76.5° - - 870.0
6/21 6:50am 143 3 G 5 80° 23% - - 39° 80.4° 76.5° - - 870.0
6/21 6:40am 120 3 G 4 78° 26% - - 40° 79.9° 76.5° - - 870.0
6/21 6:30am 122 3 G 4 78° 26% - - 41° 79.9° 76.5° - - 870.0
6/21 6:20am 141 3 G 5 79° 26% - - 41° 79.9° 76.5° - - 870.0
6/21 6:10am 141 3 G 5 78° 25% - - 40° 79.9° 76.5° - - 870.0
6/21 6:00am 135 4 G 5 78° 28% - - 42° 79.9° 76.5° - - 871.0
6/21 5:50am 156 6 G 7 78° 28% - - 42° 79.9° 76.5° - - 871.0
6/21 5:40am 143 5 G 6 78° 27% - - 42° 79.9° 76.5° - - 871.0
6/21 5:30am 156 5 G 6 78° 30% - - 44° 79.9° 76.5° - - 872.0
6/21 5:20am 138 5 G 6 78° 29% - - 44° 79.9° 76.5° - - 871.0
6/21 5:10am 142 6 G 7 78° 30% - - 44° 79.9° 76.5° - - 872.0
6/21 5:00am 156 6 G 7 78° 31% - - 45° 79.9° 76.5° - - 872.0
6/21 4:50am 153 6 G 7 77° 32% - - 45° 79.9° 76.5° - - 873.0
6/21 4:40am 160 6 G 7 77° 33% - - 46° 79.9° 76.5° - - 873.0
6/21 4:30am 134 4 G 7 78° 31% - - 46° 79.9° 76.6° - - 872.0
6/21 4:20am 143 5 G 7 77° 34% - - 47° 79.9° 76.6° - - 873.0
6/21 4:10am 153 5 G 7 77° 34% - - 46° 79.9° 76.6° - - 873.0
6/21 4:00am 123 3 G 4 78° 33% - - 47° 79.9° 77.2° - - 873.0
6/21 3:50am 151 4 G 5 78° 33% - - 47° 79.9° 77.2° - - 873.0
6/21 3:40am 139 4 G 6 78° 33% - - 47° 79.9° 77.2° - - 873.0
6/21 3:30am 155 5 G 6 78° 34% - - 47° 79.9° 77.2° - - 873.0
6/21 3:20am 152 4 G 6 78° 33% - - 47° 79.9° 77.2° - - 873.0
6/21 3:10am 154 4 G 5 78° 34% - - 47° 79.9° 77.2° - - 873.0
6/21 3:00am 151 4 G 5 78° 33% - - 47° 79.9° 77.2° - - 873.0
6/21 2:50am 143 5 G 7 78° 34% - - 47° 79.9° 77.2° - - 873.0
6/21 2:40am 159 6 G 7 78° 34% - - 47° 79.9° 77.2° - - 874.0
6/21 2:30am 165 6 G 7 78° 35% - - 48° 79.9° 77.2° - - 874.0
6/21 2:20am 135 4 G 6 78° 34% - - 47° 79.9° 77.6° - - 874.0
6/21 2:10am 117 4 G 6 78° 34% - - 48° 79.9° 77.6° - - 874.0
6/21 2:00am 154 5 G 6 78° 34% - - 47° 79.9° 77.6° - - 873.0
6/21 1:50am 156 5 G 6 78° 34% - - 47° 79.9° 77.6° - - 873.0
6/21 1:40am 159 6 G 7 78° 34% - - 47° 79.9° 77.6° - - 874.0
6/21 1:30am 162 6 G 7 78° 34% - - 47° 79.9° 77.6° - - 873.0
6/21 1:20am 158 7 G 7 78° 33% - - 47° 79.9° 77.6° - - 874.0
6/21 1:10am 162 6 G 7 78° 34% - - 48° 79.9° 77.6° - - 874.0
6/21 1:00am 162 5 G 6 79° 34% - - 48° 79.9° 78.1° - - 874.0
6/21 12:50am 124 4 G 5 79° 33% - - 48° 79.9° 78.4° - - 874.0
6/21 12:40am 152 5 G 6 79° 36% - - 49° 79.9° 78.4° - - 875.0
6/21 12:30am 148 5 G 6 79° 34% - - 49° 79.9° 78.7° - - 874.0
6/21 12:20am 146 6 G 6 79° 34% - - 49° 79.9° 78.9° - - 874.0
6/21 12:10am 136 5 G 6 80° 34% - - 49° 79.9° 79.4° - - 874.0
6/21 12:00am 137 5 G 5 79° 35% - - 50° 101.1° 72.4° - - 875.0
6/20 11:50pm 153 5 G 6 79° 35% - - 50° 101.1° 72.4° - - 875.0
6/20 11:40pm 155 6 G 6 79° 37% - - 51° 101.1° 72.4° - - 876.0
6/20 11:30pm 160 6 G 6 79° 37% - - 51° 101.1° 72.4° - - 876.0
6/20 11:20pm 148 5 G 6 80° 35% - - 50° 101.1° 72.4° - - 875.0
6/20 11:10pm 128 5 G 6 81° 35% - - 51° 101.1° 72.4° - - 875.0
6/20 11:00pm 132 6 G 7 81° 36% - - 51° 101.1° 72.4° - - 876.0
6/20 10:50pm 140 5 G 6 81° 36% - - 51° 101.1° 72.4° - - 876.0
6/20 10:40pm 141 6 G 7 81° 36% - - 51° 101.1° 72.4° - - 876.0
6/20 10:30pm 138 6 G 7 81° 36% - - 51° 101.1° 72.4° - - 876.0
6/20 10:20pm 132 5 G 6 81° 35% - - 51° 101.1° 72.4° - - 876.0
6/20 10:10pm 133 6 G 7 81° 35% - - 51° 101.1° 72.4° - - 876.0
6/20 10:00pm 135 6 G 6 82° 34% - - 51° 101.1° 72.4° - - 876.0
6/20 9:50pm 136 5 G 5 83° 31% - - 49° 101.1° 72.4° - - 875.0
6/20 9:40pm 138 4 G 5 83° 29% - - 48° 101.1° 72.4° - - 874.0
6/20 9:30pm 120 5 G 6 84° 31% - - 50° 101.1° 72.4° - - 875.0
6/20 9:20pm 110 4 G 6 84° 30% - - 49° 101.1° 72.4° - - 875.0
6/20 9:10pm 138 2 G 5 85° 26% - - 46° 101.1° 72.4° - - 874.0
6/20 9:00pm 139 1 G 2 85° 25% - - 46° 101.1° 72.4° - - 874.0
6/20 8:50pm 174 1 G 3 85° 25% - - 46° 101.1° 72.4° - - 874.0
6/20 8:40pm 231 2 G 2 86° 24% - - 45° 101.1° 72.4° - - 874.0
6/20 8:30pm 234 2 G 3 86° 24% - - 45° 101.1° 72.4° - - 874.0
6/20 8:20pm 225 2 G 3 87° 25% - - 46° 101.1° 72.4° - - 875.0
6/20 8:10pm 257 0 G 1 87° 24% - - 46° 101.1° 72.4° - - 875.0
6/20 8:00pm 277 1 G 2 88° 24% - - 46° 101.1° 72.4° - - 875.0
6/20 7:50pm 291 2 G 3 89° 23% - - 46° 101.1° 72.4° - - 875.0
6/20 7:40pm 301 2 G 4 89° 22% - - 45° 101.1° 72.4° - - 875.0
6/20 7:30pm 282 4 G 6 89° 21% - - 45° 101.1° 72.4° - - 875.0
6/20 7:20pm 277 4 G 7 90° 22% - - 46° 101.1° 72.4° - - 876.0
6/20 7:10pm 277 6 G 8 90° 22% - - 47° 101.1° 72.4° - - 876.0
6/20 7:00pm 276 7 G 9 91° 21% - - 46° 101.1° 72.4° - - 876.0
6/20 6:50pm 280 7 G 10 91° 22% - - 46° 101.1° 72.4° - - 877.0
6/20 6:40pm 277 7 G 9 91° 22% - - 47° 101.1° 72.4° - - 877.0
6/20 6:30pm 273 7 G 10 92° 22% - - 47° 101.1° 72.4° - - 877.0
6/20 6:20pm 273 7 G 11 92° 23% - - 48° 101.1° 72.4° - - 878.0
6/20 6:10pm 275 7 G 11 92° 22% - - 48° 101.1° 72.4° - - 878.0
6/20 6:00pm 273 8 G 11 93° 22% - - 48° 101.1° 72.4° - - 878.0